Terminal Aerodrome Forecast
Issued by NWS

Home | Current Version | Previous Version | Text Only | Print | Product List | Glossary On
Versions: 1 2 3 4 5 6 7 8 9 10 11 12 13 14 15
000
FTUS45 KSLC 262354
TAFPVU
TAF
KPVU 262354Z 2700/2724 14008KT P6SM SCT070 BKN140
     FM270900 15009KT P6SM VCSH SCT030 BKN070
     FM271200 17009KT 2SM -SN BR BKN015 BKN030
     FM271700 22007KT 1SM -SN BR OVC008
     FM272300 25012G18KT 2SM -SHSN BR BKN015 OVC025=

USA.gov is the U.S. government's official web portal to all federal, state and local government web resources and services.